createdAt,value
2024-05-09T00:00:01.240Z,18.10
2024-05-09T00:05:00.689Z,20.80
2024-05-09T00:10:01.588Z,19.60
2024-05-09T00:15:00.511Z,23.20
2024-05-09T00:20:00.574Z,24.60
2024-05-09T00:25:00.595Z,22.30
2024-05-09T00:30:00.617Z,24.40
2024-05-09T00:35:00.661Z,24.50
2024-05-09T00:40:00.550Z,24.90
2024-05-09T00:45:00.575Z,26.20
2024-05-09T00:50:01.680Z,29.10
2024-05-09T00:55:00.730Z,30.10
2024-05-09T01:00:01.192Z,27.10
2024-05-09T01:05:01.256Z,28.40
2024-05-09T01:10:00.529Z,30.00
2024-05-09T01:15:00.599Z,29.40
2024-05-09T01:20:00.567Z,27.50
2024-05-09T01:25:00.518Z,35.50
2024-05-09T01:30:00.754Z,31.00
2024-05-09T01:35:00.561Z,33.10
2024-05-09T01:40:00.564Z,33.70
2024-05-09T01:45:00.588Z,31.80
2024-05-09T01:50:01.061Z,37.80
2024-05-09T01:55:04.492Z,37.80
2024-05-09T02:00:00.984Z,38.50
2024-05-09T02:05:00.749Z,41.40
2024-05-09T02:10:00.524Z,41.10
2024-05-09T02:15:00.584Z,44.00
2024-05-09T02:20:00.554Z,42.40
2024-05-09T02:25:00.549Z,50.30
2024-05-09T02:30:00.636Z,41.80
2024-05-09T02:35:00.577Z,45.20
2024-05-09T02:40:00.507Z,50.60
2024-05-09T02:45:01.755Z,46.20
2024-05-09T02:50:00.622Z,44.10
2024-05-09T02:55:00.550Z,45.20
2024-05-09T03:00:01.162Z,43.10
2024-05-09T03:05:00.521Z,48.20
2024-05-09T03:10:00.696Z,51.40
2024-05-09T03:15:00.611Z,52.40
2024-05-09T03:20:01.730Z,53.00
2024-05-09T03:25:00.563Z,59.20
2024-05-09T03:30:00.650Z,58.70
2024-05-09T03:35:00.572Z,58.70
2024-05-09T03:40:00.732Z,58.10
2024-05-09T03:45:00.564Z,54.30
2024-05-09T03:50:00.729Z,60.50
2024-05-09T03:55:00.513Z,58.00
2024-05-09T04:00:01.235Z,70.50
2024-05-09T04:05:00.606Z,65.70
2024-05-09T04:10:00.493Z,63.20
2024-05-09T04:15:00.817Z,67.60
2024-05-09T04:20:00.733Z,63.10
2024-05-09T04:25:00.513Z,64.90
2024-05-09T04:30:00.687Z,68.80
2024-05-09T04:35:00.564Z,68.90
2024-05-09T04:40:00.529Z,72.70
2024-05-09T04:45:00.483Z,75.00
2024-05-09T04:50:00.594Z,66.40
2024-05-09T04:55:00.488Z,77.30
2024-05-09T05:00:01.247Z,76.60
2024-05-09T05:05:00.580Z,70.20
2024-05-09T05:10:00.650Z,81.10
2024-05-09T05:15:00.525Z,75.80
2024-05-09T05:20:00.905Z,70.70
2024-05-09T05:25:00.555Z,67.70
2024-05-09T05:30:00.573Z,63.60
2024-05-09T05:35:00.724Z,54.20
2024-05-09T05:40:00.624Z,49.40
2024-05-09T05:45:00.599Z,39.90
2024-05-09T05:50:00.713Z,35.30
2024-05-09T05:55:00.530Z,26.10
2024-05-09T06:00:01.072Z,21.80
2024-05-09T06:05:01.170Z,19.10
2024-05-09T06:10:00.588Z,19.10
2024-05-09T06:15:00.509Z,19.70
2024-05-09T06:20:00.563Z,19.10
2024-05-09T06:25:00.601Z,17.30
2024-05-09T06:30:00.527Z,18.50
2024-05-09T06:35:00.552Z,17.90
2024-05-09T06:40:00.608Z,17.00
2024-05-09T06:45:00.649Z,18.30
2024-05-09T06:50:00.750Z,17.10
2024-05-09T06:55:00.518Z,17.30
2024-05-09T07:00:01.128Z,16.50
2024-05-09T07:05:00.755Z,16.60
2024-05-09T07:10:00.521Z,15.60
2024-05-09T07:15:00.528Z,16.90
2024-05-09T07:20:00.798Z,17.60
2024-05-09T07:25:00.524Z,20.90
2024-05-09T07:30:00.599Z,15.50
2024-05-09T07:35:00.596Z,16.80
2024-05-09T07:40:00.545Z,16.00
2024-05-09T07:45:20.570Z,15.10
2024-05-09T07:51:47.629Z,14.90
2024-05-09T07:55:00.898Z,14.00
2024-05-09T08:00:01.048Z,15.70
2024-05-09T08:05:00.858Z,16.80
2024-05-09T08:10:00.598Z,14.80
2024-05-09T08:15:00.536Z,16.40
2024-05-09T08:20:02.017Z,14.60
2024-05-09T08:25:00.828Z,15.40
2024-05-09T08:30:00.686Z,16.80
2024-05-09T08:35:00.581Z,14.80
2024-05-09T08:40:00.691Z,14.80
2024-05-09T08:45:00.914Z,9.80
2024-05-09T08:50:01.907Z,13.00
2024-05-09T08:55:00.879Z,13.60
2024-05-09T09:00:06.427Z,13.20
2024-05-09T09:10:01.716Z,13.70
2024-05-09T09:15:00.552Z,13.50
2024-05-09T09:20:00.944Z,10.80
2024-05-09T09:25:00.552Z,12.40
2024-05-09T09:30:00.579Z,11.40
2024-05-09T09:35:00.730Z,11.20
2024-05-09T09:40:02.589Z,12.20
2024-05-09T09:45:05.258Z,12.40
2024-05-09T09:50:01.732Z,11.10
2024-05-09T09:55:02.444Z,11.80
2024-05-09T10:00:01.108Z,13.10
2024-05-09T10:05:01.130Z,10.20
2024-05-09T10:10:00.674Z,10.80
2024-05-09T10:15:06.784Z,12.00
2024-05-09T10:20:11.698Z,10.50
2024-05-09T10:30:06.831Z,15.70
2024-05-09T10:40:01.308Z,13.80
2024-05-09T10:45:01.001Z,12.90
2024-05-09T10:50:01.426Z,12.30
2024-05-09T10:55:02.295Z,14.10
2024-05-09T11:00:01.277Z,13.50
2024-05-09T11:05:00.874Z,13.80
2024-05-09T11:10:00.914Z,12.50
2024-05-09T11:15:00.706Z,13.10
2024-05-09T11:20:00.840Z,13.50
2024-05-09T11:25:00.942Z,13.40
2024-05-09T11:30:00.694Z,14.70
2024-05-09T11:35:00.671Z,15.10
2024-05-09T11:40:00.806Z,15.60
2024-05-09T11:45:00.702Z,15.20
2024-05-09T11:50:00.823Z,15.30
2024-05-09T11:55:00.807Z,14.60
2024-05-09T12:00:01.368Z,14.80
2024-05-09T12:05:00.878Z,16.40
2024-05-09T12:10:00.919Z,13.90
2024-05-09T12:15:00.679Z,16.10
2024-05-09T12:20:00.846Z,15.00
2024-05-09T12:25:00.722Z,16.40
2024-05-09T12:30:00.713Z,16.80
2024-05-09T12:35:00.783Z,15.00
2024-05-09T12:40:00.773Z,16.30
2024-05-09T12:45:00.693Z,14.30
2024-05-09T12:50:01.404Z,15.30
2024-05-09T12:55:02.519Z,12.90
2024-05-09T13:00:01.312Z,16.20
2024-05-09T13:05:00.838Z,15.90
2024-05-09T13:10:01.226Z,14.50
2024-05-09T13:15:00.703Z,14.00
2024-05-09T13:20:00.679Z,15.60
2024-05-09T13:25:00.731Z,14.70
2024-05-09T13:30:00.864Z,15.20
2024-05-09T13:35:00.698Z,15.40
2024-05-09T13:40:01.124Z,14.60
2024-05-09T13:45:00.668Z,15.00
2024-05-09T13:50:01.246Z,14.80
2024-05-09T13:55:00.749Z,14.90
2024-05-09T14:00:01.119Z,15.60
2024-05-09T14:05:00.919Z,15.60
2024-05-09T14:10:00.790Z,18.50
2024-05-09T14:15:00.674Z,15.30
2024-05-09T14:20:00.750Z,13.90
2024-05-09T14:25:00.991Z,16.40
2024-05-09T14:30:00.843Z,14.90
2024-05-09T14:35:00.751Z,13.60
2024-05-09T14:40:00.956Z,16.40
2024-05-09T14:45:01.253Z,32.80
2024-05-09T14:50:00.749Z,25.60
2024-05-09T14:55:01.280Z,16.60
2024-05-09T15:00:02.106Z,27.50
2024-05-09T15:05:01.642Z,17.90
2024-05-09T15:10:01.151Z,17.50
2024-05-09T15:15:00.695Z,15.70
2024-05-09T15:20:00.841Z,13.80
2024-05-09T15:25:00.795Z,15.60
2024-05-09T15:30:00.688Z,13.60
2024-05-09T15:35:00.682Z,14.80
2024-05-09T15:40:00.889Z,15.20
2024-05-09T15:45:00.671Z,16.50
2024-05-09T15:50:00.868Z,15.20
2024-05-09T15:55:00.716Z,16.80
2024-05-09T16:00:01.390Z,16.60
2024-05-09T16:05:00.835Z,14.30
2024-05-09T16:10:00.839Z,18.60
2024-05-09T16:15:00.721Z,19.80
2024-05-09T16:20:00.719Z,15.50
2024-05-09T16:25:00.707Z,15.00
2024-05-09T16:30:00.774Z,15.20
2024-05-09T16:35:00.698Z,16.20
2024-05-09T16:40:00.767Z,15.00
2024-05-09T16:45:00.793Z,15.20
2024-05-09T16:50:00.644Z,15.50
2024-05-09T16:55:00.750Z,14.00
2024-05-09T17:00:01.306Z,16.90
2024-05-09T17:05:00.867Z,15.50
2024-05-09T17:10:00.875Z,14.90
2024-05-09T17:15:00.782Z,14.30
2024-05-09T17:20:00.664Z,17.20
2024-05-09T17:25:00.854Z,19.70
2024-05-09T17:30:01.683Z,19.50
2024-05-09T17:35:00.934Z,19.00
2024-05-09T17:40:00.821Z,15.80
2024-05-09T17:45:00.884Z,18.60
2024-05-09T17:50:01.172Z,21.70
2024-05-09T17:55:00.964Z,21.00
2024-05-09T18:00:01.125Z,20.50
2024-05-09T18:05:01.361Z,21.20
2024-05-09T18:10:00.857Z,21.50
2024-05-09T18:15:00.859Z,21.30
2024-05-09T18:20:00.794Z,22.00
2024-05-09T18:25:00.731Z,23.40
2024-05-09T18:30:00.981Z,22.00
2024-05-09T18:35:00.845Z,25.00
2024-05-09T18:40:00.777Z,23.80
2024-05-09T18:45:00.702Z,24.80
2024-05-09T18:50:00.835Z,24.50
2024-05-09T18:55:00.766Z,25.50
2024-05-09T19:00:01.129Z,26.60
2024-05-09T19:05:00.851Z,25.60
2024-05-09T19:10:00.836Z,24.90
2024-05-09T19:15:00.669Z,24.30
2024-05-09T19:20:01.133Z,26.10
2024-05-09T19:25:00.691Z,25.00
2024-05-09T19:30:00.677Z,27.00
2024-05-09T19:35:00.669Z,26.00
2024-05-09T19:40:00.927Z,27.00
2024-05-09T19:45:00.706Z,27.70
2024-05-09T19:50:01.092Z,26.80
2024-05-09T19:55:00.793Z,25.80
2024-05-09T20:00:01.108Z,26.50
2024-05-09T20:05:01.006Z,26.50
2024-05-09T20:10:00.799Z,26.50
2024-05-09T20:15:00.694Z,28.90
2024-05-09T20:20:00.888Z,28.70
2024-05-09T20:25:00.792Z,30.60
2024-05-09T20:30:00.690Z,29.90
2024-05-09T20:35:00.702Z,27.60
2024-05-09T20:40:00.744Z,26.90
2024-05-09T20:45:00.681Z,28.40
2024-05-09T20:50:00.693Z,28.60
2024-05-09T20:55:01.052Z,29.50
2024-05-09T21:00:02.536Z,28.20
2024-05-09T21:05:00.990Z,31.60
2024-05-09T21:10:00.722Z,29.40
2024-05-09T21:15:00.678Z,30.20
2024-05-09T21:20:00.792Z,29.90
2024-05-09T21:25:00.737Z,31.20
2024-05-09T21:30:00.768Z,28.80
2024-05-09T21:35:00.692Z,30.20
2024-05-09T21:40:00.786Z,32.20
2024-05-09T21:45:00.674Z,32.30
2024-05-09T21:50:00.665Z,30.40
2024-05-09T21:55:00.836Z,29.60
2024-05-09T22:00:01.395Z,31.40
2024-05-09T22:05:00.912Z,30.10
2024-05-09T22:10:00.976Z,30.90
2024-05-09T22:15:00.691Z,32.40
2024-05-09T22:20:00.716Z,31.30
2024-05-09T22:25:01.048Z,31.40
2024-05-09T22:30:00.682Z,32.60
2024-05-09T22:35:00.959Z,30.60
2024-05-09T22:40:02.413Z,30.60
2024-05-09T22:45:00.698Z,34.00
2024-05-09T22:50:00.659Z,34.10
2024-05-09T22:55:00.783Z,33.90
2024-05-09T23:00:01.338Z,35.20
2024-05-09T23:05:00.935Z,35.80
2024-05-09T23:10:00.897Z,34.90
2024-05-09T23:15:00.695Z,36.40
2024-05-09T23:20:00.714Z,36.50
2024-05-09T23:25:00.815Z,36.80
2024-05-09T23:30:00.714Z,35.20
2024-05-09T23:35:00.816Z,37.60
2024-05-09T23:40:00.787Z,34.80
2024-05-09T23:45:00.737Z,37.20
2024-05-09T23:50:00.822Z,35.30
2024-05-09T23:55:00.858Z,36.20
